Allensburg, Ohio
Current Conditions -  °F | °C
As of 3:09 AM on Monday 26 Jan 2015 (Local Time) from KILN Reporting Station
Light Snow Light Snow  
Wind Chill:   Ceiling: 2000
Heat Index: 22°   Visibility: 1.5mi
Dew Point: 18°   Wind: 20mph
Humidity: 85%   Direction: 10°N
Pressure: 29.73"   Gusts: 25mph
Location:  39.1546°N, 83.569°W
Report Text: KILN 260809Z AUTO 01017G22KT 1 1/2SM -SN BR FEW008 OVC020 M06/M08 A2973 RMK AO2 P0001 T10561078
Loading
Personal Weather Stations






























Interactive Weather Map New forecast layout! Learn more

10-Day Weather Forecast

Advertisements
Track Severe Weather on mobile